Mammoth, Pennsylvania
Current Conditions -  °F | °C
As of 5:50 PM on Tuesday 27 Jan 2015 (Local Time) from KLBE Reporting Station
Light Snow Light Snow  
Wind Chill: 11°   Ceiling: 3800
Heat Index: 21°   Visibility: 5mi
Dew Point: 18°   Wind: 9mph
Humidity: 86%   Direction: 280°W
Pressure: 30.02"   Gusts: NA
Location:  40.2°N, 79.46°W
Report Text: KLBE 272250Z 28008KT 5SM -SN BR SCT023 OVC038 M06/M08 A3002
Loading
Personal Weather Stations






























Interactive Weather Map New forecast layout! Learn more

10-Day Weather Forecast

Advertisements
Track Severe Weather on mobile